sensor_id;sensor_type;location;lat;lon;timestamp;pressure;altitude;pressure_sealevel;temperature;humidity
76285;BME280;65096;50.998;7.098;2022-12-10T00:01:26;100171.13;;;-0.75;62.59
76285;BME280;65096;50.998;7.098;2022-12-10T00:03:53;100170.19;;;-0.77;62.23
76285;BME280;65096;50.998;7.098;2022-12-10T00:06:21;100160.72;;;-0.81;62.40
76285;BME280;65096;50.998;7.098;2022-12-10T00:08:48;100174.31;;;-0.79;62.32
76285;BME280;65096;50.998;7.098;2022-12-10T00:11:17;100176.72;;;-0.82;62.33
76285;BME280;65096;50.998;7.098;2022-12-10T00:13:47;100167.28;;;-0.86;62.44
76285;BME280;65096;50.998;7.098;2022-12-10T00:16:16;100163.88;;;-0.86;62.21
76285;BME280;65096;50.998;7.098;2022-12-10T00:18:43;100170.84;;;-0.81;62.54
76285;BME280;65096;50.998;7.098;2022-12-10T00:21:12;100169.94;;;-0.83;62.10
76285;BME280;65096;50.998;7.098;2022-12-10T00:23:39;100167.34;;;-0.84;62.25
76285;BME280;65096;50.998;7.098;2022-12-10T00:26:07;100169.56;;;-0.91;62.33
76285;BME280;65096;50.998;7.098;2022-12-10T00:28:34;100171.25;;;-0.91;62.42
76285;BME280;65096;50.998;7.098;2022-12-10T00:31:04;100169.50;;;-0.92;62.47
76285;BME280;65096;50.998;7.098;2022-12-10T00:33:31;100167.78;;;-0.93;62.29
76285;BME280;65096;50.998;7.098;2022-12-10T00:36:01;100173.50;;;-0.97;62.56
76285;BME280;65096;50.998;7.098;2022-12-10T00:38:29;100172.78;;;-0.95;62.37
76285;BME280;65096;50.998;7.098;2022-12-10T00:40:55;100173.56;;;-0.96;62.54
76285;BME280;65096;50.998;7.098;2022-12-10T00:43:22;100170.13;;;-0.98;62.36
76285;BME280;65096;50.998;7.098;2022-12-10T00:45:48;100176.09;;;-0.96;62.43
76285;BME280;65096;50.998;7.098;2022-12-10T00:48:16;100177.66;;;-0.99;62.22
76285;BME280;65096;50.998;7.098;2022-12-10T00:50:43;100163.13;;;-1.03;62.12
76285;BME280;65096;50.998;7.098;2022-12-10T00:53:09;100163.94;;;-1.04;62.32
76285;BME280;65096;50.998;7.098;2022-12-10T00:55:36;100159.66;;;-1.05;62.05
76285;BME280;65096;50.998;7.098;2022-12-10T00:58:02;100162.28;;;-1.04;62.47
76285;BME280;65096;50.998;7.098;2022-12-10T01:00:29;100166.47;;;-1.04;62.07
76285;BME280;65096;50.998;7.098;2022-12-10T01:02:55;100164.72;;;-1.05;62.42
76285;BME280;65096;50.998;7.098;2022-12-10T01:05:24;100166.28;;;-1.09;62.07
76285;BME280;65096;50.998;7.098;2022-12-10T01:07:50;100165.97;;;-1.15;62.07
76285;BME280;65096;50.998;7.098;2022-12-10T01:10:18;100177.84;;;-1.14;62.05
76285;BME280;65096;50.998;7.098;2022-12-10T01:12:45;100171.19;;;-1.12;62.21
76285;BME280;65096;50.998;7.098;2022-12-10T01:15:12;100174.38;;;-1.16;62.14
76285;BME280;65096;50.998;7.098;2022-12-10T01:17:38;100187.03;;;-1.16;62.55
76285;BME280;65096;50.998;7.098;2022-12-10T01:20:05;100184.38;;;-1.19;62.13
76285;BME280;65096;50.998;7.098;2022-12-10T01:22:33;100182.72;;;-1.18;62.12
76285;BME280;65096;50.998;7.098;2022-12-10T01:25:00;100190.44;;;-1.15;62.26
76285;BME280;65096;50.998;7.098;2022-12-10T01:27:26;100191.28;;;-1.15;62.32
76285;BME280;65096;50.998;7.098;2022-12-10T01:29:53;100190.31;;;-1.18;62.06
76285;BME280;65096;50.998;7.098;2022-12-10T01:32:19;100197.09;;;-1.17;61.86
76285;BME280;65096;50.998;7.098;2022-12-10T01:34:46;100195.28;;;-1.20;61.79
76285;BME280;65096;50.998;7.098;2022-12-10T01:37:13;100194.22;;;-1.25;61.85
76285;BME280;65096;50.998;7.098;2022-12-10T01:39:41;100202.72;;;-1.23;62.05
76285;BME280;65096;50.998;7.098;2022-12-10T01:42:12;100193.91;;;-1.31;61.82
76285;BME280;65096;50.998;7.098;2022-12-10T01:45:03;100212.00;;;-1.23;62.09
76285;BME280;65096;50.998;7.098;2022-12-10T01:47:33;100216.97;;;-1.25;62.03
76285;BME280;65096;50.998;7.098;2022-12-10T01:50:04;100209.16;;;-1.29;62.04
76285;BME280;65096;50.998;7.098;2022-12-10T01:52:30;100218.50;;;-1.28;62.08
76285;BME280;65096;50.998;7.098;2022-12-10T01:54:58;100215.03;;;-1.30;62.52
76285;BME280;65096;50.998;7.098;2022-12-10T01:57:26;100214.91;;;-1.33;62.26
76285;BME280;65096;50.998;7.098;2022-12-10T01:59:55;100217.34;;;-1.35;61.96
76285;BME280;65096;50.998;7.098;2022-12-10T02:02:31;100215.56;;;-1.37;62.52
76285;BME280;65096;50.998;7.098;2022-12-10T02:05:13;100207.47;;;-1.48;62.23
76285;BME280;65096;50.998;7.098;2022-12-10T02:07:57;100220.31;;;-1.43;62.33
76285;BME280;65096;50.998;7.098;2022-12-10T02:10:35;100221.06;;;-1.46;62.48
76285;BME280;65096;50.998;7.098;2022-12-10T02:13:09;100222.78;;;-1.45;62.32
76285;BME280;65096;50.998;7.098;2022-12-10T02:15:41;100223.31;;;-1.52;62.49
76285;BME280;65096;50.998;7.098;2022-12-10T02:18:13;100226.63;;;-1.53;62.65
76285;BME280;65096;50.998;7.098;2022-12-10T02:20:43;100219.91;;;-1.52;62.46
76285;BME280;65096;50.998;7.098;2022-12-10T02:23:14;100215.06;;;-1.65;62.32
76285;BME280;65096;50.998;7.098;2022-12-10T02:25:49;100225.91;;;-1.68;62.66
76285;BME280;65096;50.998;7.098;2022-12-10T02:28:22;100223.31;;;-1.69;62.73
76285;BME280;65096;50.998;7.098;2022-12-10T02:30:52;100214.06;;;-1.69;62.68
76285;BME280;65096;50.998;7.098;2022-12-10T02:33:21;100222.59;;;-1.67;62.52
76285;BME280;65096;50.998;7.098;2022-12-10T02:35:52;100217.66;;;-1.64;62.67
76285;BME280;65096;50.998;7.098;2022-12-10T02:38:24;100216.72;;;-1.66;62.59
76285;BME280;65096;50.998;7.098;2022-12-10T02:40:57;100216.03;;;-1.63;62.64
76285;BME280;65096;50.998;7.098;2022-12-10T02:43:25;100219.31;;;-1.64;62.27
76285;BME280;65096;50.998;7.098;2022-12-10T02:45:55;100217.03;;;-1.60;62.56
76285;BME280;65096;50.998;7.098;2022-12-10T02:48:24;100223.06;;;-1.56;62.50
76285;BME280;65096;50.998;7.098;2022-12-10T02:50:51;100222.16;;;-1.58;62.25
76285;BME280;65096;50.998;7.098;2022-12-10T02:53:17;100217.19;;;-1.57;62.61
76285;BME280;65096;50.998;7.098;2022-12-10T02:55:55;100217.88;;;-1.59;62.42
76285;BME280;65096;50.998;7.098;2022-12-10T02:58:28;100205.63;;;-1.69;62.29
76285;BME280;65096;50.998;7.098;2022-12-10T03:01:04;100222.16;;;-1.58;62.57
76285;BME280;65096;50.998;7.098;2022-12-10T03:03:38;100221.72;;;-1.67;62.36
76285;BME280;65096;50.998;7.098;2022-12-10T03:06:12;100234.56;;;-1.63;62.53
76285;BME280;65096;50.998;7.098;2022-12-10T03:08:44;100238.09;;;-1.59;62.38
76285;BME280;65096;50.998;7.098;2022-12-10T03:11:13;100241.50;;;-1.59;62.33
76285;BME280;65096;50.998;7.098;2022-12-10T03:13:48;100237.97;;;-1.62;62.35
76285;BME280;65096;50.998;7.098;2022-12-10T03:16:19;100243.97;;;-1.60;62.51
76285;BME280;65096;50.998;7.098;2022-12-10T03:18:49;100245.69;;;-1.59;62.35
76285;BME280;65096;50.998;7.098;2022-12-10T03:21:21;100239.78;;;-1.60;62.17
76285;BME280;65096;50.998;7.098;2022-12-10T03:23:49;100242.13;;;-1.63;62.11
76285;BME280;65096;50.998;7.098;2022-12-10T03:26:18;100248.81;;;-1.65;62.20
76285;BME280;65096;50.998;7.098;2022-12-10T03:28:49;100241.22;;;-1.65;62.47
76285;BME280;65096;50.998;7.098;2022-12-10T03:31:18;100252.34;;;-1.61;61.86
76285;BME280;65096;50.998;7.098;2022-12-10T03:33:47;100230.91;;;-1.69;61.87
76285;BME280;65096;50.998;7.098;2022-12-10T03:36:15;100241.22;;;-1.65;62.21
76285;BME280;65096;50.998;7.098;2022-12-10T03:38:43;100239.41;;;-1.67;62.37
76285;BME280;65096;50.998;7.098;2022-12-10T03:41:10;100240.94;;;-1.71;62.27
76285;BME280;65096;50.998;7.098;2022-12-10T03:43:50;100243.75;;;-1.82;62.06
76285;BME280;65096;50.998;7.098;2022-12-10T03:46:18;100245.31;;;-1.84;62.10
76285;BME280;65096;50.998;7.098;2022-12-10T03:48:45;100249.09;;;-1.76;61.94
76285;BME280;65096;50.998;7.098;2022-12-10T03:51:11;100250.19;;;-1.71;62.07
76285;BME280;65096;50.998;7.098;2022-12-10T03:53:38;100247.66;;;-1.71;62.16
76285;BME280;65096;50.998;7.098;2022-12-10T03:56:05;100252.19;;;-1.64;62.09
76285;BME280;65096;50.998;7.098;2022-12-10T03:58:31;100252.19;;;-1.64;62.02
76285;BME280;65096;50.998;7.098;2022-12-10T04:00:58;100258.19;;;-1.62;62.08
76285;BME280;65096;50.998;7.098;2022-12-10T04:03:26;100257.41;;;-1.61;61.79
76285;BME280;65096;50.998;7.098;2022-12-10T04:05:52;100261.72;;;-1.59;61.84
76285;BME280;65096;50.998;7.098;2022-12-10T04:08:19;100265.75;;;-1.62;62.01
76285;BME280;65096;50.998;7.098;2022-12-10T04:10:45;100268.09;;;-1.67;61.84
76285;BME280;65096;50.998;7.098;2022-12-10T04:13:12;100263.16;;;-1.64;61.97
76285;BME280;65096;50.998;7.098;2022-12-10T04:15:56;100266.44;;;-1.66;61.97
76285;BME280;65096;50.998;7.098;2022-12-10T04:18:42;100267.34;;;-1.64;62.03
76285;BME280;65096;50.998;7.098;2022-12-10T04:21:08;100268.22;;;-1.64;62.25
76285;BME280;65096;50.998;7.098;2022-12-10T04:23:52;100275.75;;;-1.65;62.38
76285;BME280;65096;50.998;7.098;2022-12-10T04:26:36;100276.81;;;-1.60;62.54
76285;BME280;65096;50.998;7.098;2022-12-10T04:29:18;100276.75;;;-1.62;62.23
76285;BME280;65096;50.998;7.098;2022-12-10T04:31:45;100284.28;;;-1.63;62.53
76285;BME280;65096;50.998;7.098;2022-12-10T04:34:12;100270.13;;;-1.60;63.59
76285;BME280;65096;50.998;7.098;2022-12-10T04:36:39;100272.56;;;-1.61;62.88
76285;BME280;65096;50.998;7.098;2022-12-10T04:39:06;100273.28;;;-1.64;62.42
76285;BME280;65096;50.998;7.098;2022-12-10T04:41:32;100278.53;;;-1.59;62.65
76285;BME280;65096;50.998;7.098;2022-12-10T04:43:59;100276.16;;;-1.56;62.71
76285;BME280;65096;50.998;7.098;2022-12-10T04:46:25;100272.84;;;-1.55;62.72
76285;BME280;65096;50.998;7.098;2022-12-10T04:48:52;100271.09;;;-1.56;62.55
76285;BME280;65096;50.998;7.098;2022-12-10T04:51:20;100265.41;;;-1.52;63.14
76285;BME280;65096;50.998;7.098;2022-12-10T04:53:47;100268.75;;;-1.53;62.78
76285;BME280;65096;50.998;7.098;2022-12-10T04:56:13;100268.00;;;-1.51;62.77
76285;BME280;65096;50.998;7.098;2022-12-10T04:58:40;100263.84;;;-1.50;62.92
76285;BME280;65096;50.998;7.098;2022-12-10T05:01:09;100260.44;;;-1.51;63.09
76285;BME280;65096;50.998;7.098;2022-12-10T05:03:38;100256.09;;;-1.53;62.35
76285;BME280;65096;50.998;7.098;2022-12-10T05:06:07;100263.69;;;-1.53;62.81
76285;BME280;65096;50.998;7.098;2022-12-10T05:08:36;100262.88;;;-1.52;63.38
76285;BME280;65096;50.998;7.098;2022-12-10T05:11:05;100257.75;;;-1.54;63.34
76285;BME280;65096;50.998;7.098;2022-12-10T05:13:33;100261.06;;;-1.55;63.22
76285;BME280;65096;50.998;7.098;2022-12-10T05:16:01;100262.88;;;-1.52;63.22
76285;BME280;65096;50.998;7.098;2022-12-10T05:18:28;100253.66;;;-1.52;63.55
76285;BME280;65096;50.998;7.098;2022-12-10T05:20:54;100261.94;;;-1.54;63.25
76285;BME280;65096;50.998;7.098;2022-12-10T05:23:24;100258.63;;;-1.53;63.47
76285;BME280;65096;50.998;7.098;2022-12-10T05:26:02;100263.91;;;-1.49;63.86
76285;BME280;65096;50.998;7.098;2022-12-10T05:28:30;100267.28;;;-1.48;63.38
76285;BME280;65096;50.998;7.098;2022-12-10T05:30:58;100267.44;;;-1.45;63.91
76285;BME280;65096;50.998;7.098;2022-12-10T05:33:25;100264.69;;;-1.50;63.19
76285;BME280;65096;50.998;7.098;2022-12-10T05:35:55;100263.44;;;-1.40;63.68
76285;BME280;65096;50.998;7.098;2022-12-10T05:38:23;100278.69;;;-1.39;63.41
76285;BME280;65096;50.998;7.098;2022-12-10T05:40:50;100263.63;;;-1.37;64.00
76285;BME280;65096;50.998;7.098;2022-12-10T05:43:19;100268.34;;;-1.43;63.96
76285;BME280;65096;50.998;7.098;2022-12-10T05:45:46;100264.19;;;-1.43;63.45
76285;BME280;65096;50.998;7.098;2022-12-10T05:48:14;100263.44;;;-1.40;63.68
76285;BME280;65096;50.998;7.098;2022-12-10T05:50:41;100262.47;;;-1.44;63.61
76285;BME280;65096;50.998;7.098;2022-12-10T05:53:08;100270.31;;;-1.38;63.89
76285;BME280;65096;50.998;7.098;2022-12-10T05:55:35;100269.66;;;-1.34;63.95
76285;BME280;65096;50.998;7.098;2022-12-10T05:58:01;100277.31;;;-1.32;64.60
76285;BME280;65096;50.998;7.098;2022-12-10T06:00:30;100273.00;;;-1.35;63.54
76285;BME280;65096;50.998;7.098;2022-12-10T06:02:56;100279.84;;;-1.32;63.67
76285;BME280;65096;50.998;7.098;2022-12-10T06:05:23;100279.97;;;-1.29;64.87
76285;BME280;65096;50.998;7.098;2022-12-10T06:07:49;100286.72;;;-1.30;64.14
76285;BME280;65096;50.998;7.098;2022-12-10T06:10:16;100288.44;;;-1.29;63.81
76285;BME280;65096;50.998;7.098;2022-12-10T06:12:43;100282.44;;;-1.31;63.61
76285;BME280;65096;50.998;7.098;2022-12-10T06:15:09;100284.19;;;-1.30;65.00
76285;BME280;65096;50.998;7.098;2022-12-10T06:17:37;100283.31;;;-1.30;64.24
76285;BME280;65096;50.998;7.098;2022-12-10T06:20:05;100284.25;;;-1.28;64.27
76285;BME280;65096;50.998;7.098;2022-12-10T06:22:33;100278.03;;;-1.35;64.05
76285;BME280;65096;50.998;7.098;2022-12-10T06:24:59;100283.97;;;-1.34;63.43
76285;BME280;65096;50.998;7.098;2022-12-10T06:27:26;100285.56;;;-1.36;65.33
76285;BME280;65096;50.998;7.098;2022-12-10T06:29:53;100283.03;;;-1.36;64.29
76285;BME280;65096;50.998;7.098;2022-12-10T06:32:19;100291.50;;;-1.36;64.12
76285;BME280;65096;50.998;7.098;2022-12-10T06:34:47;100283.25;;;-1.32;64.45
76285;BME280;65096;50.998;7.098;2022-12-10T06:37:14;100279.50;;;-1.40;63.87
76285;BME280;65096;50.998;7.098;2022-12-10T06:39:40;100279.28;;;-1.27;63.70
76285;BME280;65096;50.998;7.098;2022-12-10T06:42:07;100292.94;;;-1.23;65.39
76285;BME280;65096;50.998;7.098;2022-12-10T06:44:33;100292.78;;;-1.26;64.10
76285;BME280;65096;50.998;7.098;2022-12-10T06:47:00;100295.31;;;-1.26;64.00
76285;BME280;65096;50.998;7.098;2022-12-10T06:49:27;100305.50;;;-1.25;64.06
76285;BME280;65096;50.998;7.098;2022-12-10T06:51:55;100300.53;;;-1.23;64.66
76285;BME280;65096;50.998;7.098;2022-12-10T06:54:21;100306.28;;;-1.26;63.97
76285;BME280;65096;50.998;7.098;2022-12-10T06:56:48;100302.91;;;-1.26;63.81
76285;BME280;65096;50.998;7.098;2022-12-10T06:59:14;100311.41;;;-1.24;63.86
76285;BME280;65096;50.998;7.098;2022-12-10T07:01:41;100308.81;;;-1.26;64.70
76285;BME280;65096;50.998;7.098;2022-12-10T07:04:10;100311.13;;;-1.30;64.16
76285;BME280;65096;50.998;7.098;2022-12-10T07:06:37;100323.16;;;-1.26;63.95
76285;BME280;65096;50.998;7.098;2022-12-10T07:09:04;100320.81;;;-1.22;65.73
76285;BME280;65096;50.998;7.098;2022-12-10T07:11:32;100323.28;;;-1.23;64.67
76285;BME280;65096;50.998;7.098;2022-12-10T07:13:58;100331.50;;;-1.27;64.35
76285;BME280;65096;50.998;7.098;2022-12-10T07:16:27;100329.25;;;-1.21;64.03
76285;BME280;65096;50.998;7.098;2022-12-10T07:18:55;100336.22;;;-1.17;63.98
76285;BME280;65096;50.998;7.098;2022-12-10T07:21:23;100332.22;;;-1.12;64.25
76285;BME280;65096;50.998;7.098;2022-12-10T07:23:50;100325.53;;;-1.12;64.16
76285;BME280;65096;50.998;7.098;2022-12-10T07:26:21;100330.47;;;-1.13;64.29
76285;BME280;65096;50.998;7.098;2022-12-10T07:28:50;100335.53;;;-1.13;63.88
76285;BME280;65096;50.998;7.098;2022-12-10T07:31:17;100337.44;;;-1.09;64.29
76285;BME280;65096;50.998;7.098;2022-12-10T07:33:44;100332.50;;;-1.06;65.43
76285;BME280;65096;50.998;7.098;2022-12-10T07:36:11;100334.97;;;-1.08;64.16
76285;BME280;65096;50.998;7.098;2022-12-10T07:38:39;100337.50;;;-1.08;64.44
76285;BME280;65096;50.998;7.098;2022-12-10T07:41:09;100347.00;;;-1.04;64.50
76285;BME280;65096;50.998;7.098;2022-12-10T07:43:39;100346.19;;;-1.03;64.68
76285;BME280;65096;50.998;7.098;2022-12-10T07:46:07;100342.69;;;-1.05;64.17
76285;BME280;65096;50.998;7.098;2022-12-10T07:48:36;100346.19;;;-1.03;64.44
76285;BME280;65096;50.998;7.098;2022-12-10T07:51:04;100347.91;;;-1.02;64.21
76285;BME280;65096;50.998;7.098;2022-12-10T07:53:31;100351.16;;;-1.04;64.37
76285;BME280;65096;50.998;7.098;2022-12-10T07:55:57;100357.94;;;-1.03;64.08
76285;BME280;65096;50.998;7.098;2022-12-10T07:58:24;100350.34;;;-1.03;64.50
76285;BME280;65096;50.998;7.098;2022-12-10T08:00:56;100358.03;;;-1.02;64.57
76285;BME280;65096;50.998;7.098;2022-12-10T08:03:23;100360.69;;;-0.99;64.48
76285;BME280;65096;50.998;7.098;2022-12-10T08:06:00;100361.50;;;-1.00;64.41
76285;BME280;65096;50.998;7.098;2022-12-10T08:08:27;100365.63;;;-1.02;64.53
76285;BME280;65096;50.998;7.098;2022-12-10T08:10:53;100371.63;;;-1.00;64.07
76285;BME280;65096;50.998;7.098;2022-12-10T08:13:20;100376.81;;;-0.97;64.87
76285;BME280;65096;50.998;7.098;2022-12-10T08:15:46;100373.47;;;-0.96;64.91
76285;BME280;65096;50.998;7.098;2022-12-10T08:18:14;100378.66;;;-0.94;64.51
76285;BME280;65096;50.998;7.098;2022-12-10T08:20:41;100381.25;;;-0.93;64.12
76285;BME280;65096;50.998;7.098;2022-12-10T08:23:08;100382.97;;;-0.92;64.48
76285;BME280;65096;50.998;7.098;2022-12-10T08:25:35;100385.50;;;-0.92;64.14
76285;BME280;65096;50.998;7.098;2022-12-10T08:28:03;100393.22;;;-0.88;63.94
76285;BME280;65096;50.998;7.098;2022-12-10T08:30:29;100384.63;;;-0.92;64.02
76285;BME280;65096;50.998;7.098;2022-12-10T08:32:56;100391.38;;;-0.93;64.00
76285;BME280;65096;50.998;7.098;2022-12-10T08:35:24;100392.06;;;-0.95;64.47
76285;BME280;65096;50.998;7.098;2022-12-10T08:37:51;100393.91;;;-0.93;64.44
76285;BME280;65096;50.998;7.098;2022-12-10T08:40:18;100387.81;;;-0.96;64.71
76285;BME280;65096;50.998;7.098;2022-12-10T08:42:47;100393.91;;;-0.93;64.63
76285;BME280;65096;50.998;7.098;2022-12-10T08:45:14;100394.94;;;-0.88;64.77
76285;BME280;65096;50.998;7.098;2022-12-10T08:47:40;100395.13;;;-0.84;64.48
76285;BME280;65096;50.998;7.098;2022-12-10T08:50:07;100397.06;;;-0.79;64.46
76285;BME280;65096;50.998;7.098;2022-12-10T08:52:35;100403.94;;;-0.76;64.28
76285;BME280;65096;50.998;7.098;2022-12-10T08:55:05;100415.72;;;-0.77;64.43
76285;BME280;65096;50.998;7.098;2022-12-10T08:57:32;100415.84;;;-0.74;64.17
76285;BME280;65096;50.998;7.098;2022-12-10T08:59:59;100415.94;;;-0.72;64.84
76285;BME280;65096;50.998;7.098;2022-12-10T09:02:25;100421.00;;;-0.72;64.49
76285;BME280;65096;50.998;7.098;2022-12-10T09:04:54;100417.56;;;-0.73;64.30
76285;BME280;65096;50.998;7.098;2022-12-10T09:07:21;100418.66;;;-0.68;64.63
76285;BME280;65096;50.998;7.098;2022-12-10T09:09:49;100422.13;;;-0.66;64.71
76285;BME280;65096;50.998;7.098;2022-12-10T09:12:16;100423.88;;;-0.65;64.62
76285;BME280;65096;50.998;7.098;2022-12-10T09:14:42;100420.56;;;-0.64;65.62
76285;BME280;65096;50.998;7.098;2022-12-10T09:17:09;100420.56;;;-0.64;65.03
76285;BME280;65096;50.998;7.098;2022-12-10T09:19:36;100418.03;;;-0.64;64.52
76285;BME280;65096;50.998;7.098;2022-12-10T09:22:02;100411.28;;;-0.63;64.61
76285;BME280;65096;50.998;7.098;2022-12-10T09:24:29;100392.44;;;-0.70;64.26
76285;BME280;65096;50.998;7.098;2022-12-10T09:26:57;100420.09;;;-0.55;64.44
76285;BME280;65096;50.998;7.098;2022-12-10T09:29:24;100421.16;;;-0.50;64.38
76285;BME280;65096;50.998;7.098;2022-12-10T09:31:51;100407.41;;;-0.55;64.25
76285;BME280;65096;50.998;7.098;2022-12-10T09:34:18;100423.75;;;-0.49;64.06
76285;BME280;65096;50.998;7.098;2022-12-10T09:36:45;100428.06;;;-0.48;64.08
76285;BME280;65096;50.998;7.098;2022-12-10T09:39:12;100421.47;;;-0.44;64.60
76285;BME280;65096;50.998;7.098;2022-12-10T09:41:56;100421.53;;;-0.43;64.41
76285;BME280;65096;50.998;7.098;2022-12-10T09:44:38;100422.38;;;-0.42;64.54
76285;BME280;65096;50.998;7.098;2022-12-10T09:47:09;100411.41;;;-0.43;64.28
76285;BME280;65096;50.998;7.098;2022-12-10T09:49:47;100423.47;;;-0.37;64.40
76285;BME280;65096;50.998;7.098;2022-12-10T09:52:21;100419.28;;;-0.37;64.81
76285;BME280;65096;50.998;7.098;2022-12-10T09:54:52;100426.00;;;-0.37;64.42
76285;BME280;65096;50.998;7.098;2022-12-10T09:57:22;100427.88;;;-0.33;64.52
76285;BME280;65096;50.998;7.098;2022-12-10T09:59:54;100408.00;;;-0.43;64.50
76285;BME280;65096;50.998;7.098;2022-12-10T10:02:23;100419.53;;;-0.31;64.31
76285;BME280;65096;50.998;7.098;2022-12-10T10:04:53;100420.56;;;-0.27;64.59
76285;BME280;65096;50.998;7.098;2022-12-10T10:07:24;100429.16;;;-0.24;64.58
76285;BME280;65096;50.998;7.098;2022-12-10T10:09:56;100424.03;;;-0.25;64.71
76285;BME280;65096;50.998;7.098;2022-12-10T10:12:27;100428.34;;;-0.23;64.39
76285;BME280;65096;50.998;7.098;2022-12-10T10:14:56;100432.78;;;-0.19;64.84
76285;BME280;65096;50.998;7.098;2022-12-10T10:17:27;100436.09;;;-0.20;64.45
76285;BME280;65096;50.998;7.098;2022-12-10T10:19:55;100435.19;;;-0.20;64.12
76285;BME280;65096;50.998;7.098;2022-12-10T10:22:22;100442.97;;;-0.17;64.51
76285;BME280;65096;50.998;7.098;2022-12-10T10:24:48;100437.97;;;-0.16;64.48
76285;BME280;65096;50.998;7.098;2022-12-10T10:27:16;100438.56;;;-0.21;64.75
76285;BME280;65096;50.998;7.098;2022-12-10T10:29:46;100432.78;;;-0.19;64.55
76285;BME280;65096;50.998;7.098;2022-12-10T10:32:17;100442.22;;;-0.15;64.23
76285;BME280;65096;50.998;7.098;2022-12-10T10:34:45;100444.69;;;-0.16;64.62
76285;BME280;65096;50.998;7.098;2022-12-10T10:37:16;100435.69;;;-0.10;64.58
76285;BME280;65096;50.998;7.098;2022-12-10T10:39:47;100442.16;;;-0.16;64.55
76285;BME280;65096;50.998;7.098;2022-12-10T10:42:25;100431.22;;;-0.15;64.25
76285;BME280;65096;50.998;7.098;2022-12-10T10:44:53;100434.69;;;-0.13;64.31
76285;BME280;65096;50.998;7.098;2022-12-10T10:47:27;100425.38;;;-0.14;64.71
76285;BME280;65096;50.998;7.098;2022-12-10T10:49:56;100434.50;;;-0.18;64.80
76285;BME280;65096;50.998;7.098;2022-12-10T10:52:28;100428.81;;;-0.12;64.21
76285;BME280;65096;50.998;7.098;2022-12-10T10:54:55;100424.63;;;-0.12;64.62
76285;BME280;65096;50.998;7.098;2022-12-10T10:57:25;100430.56;;;-0.11;64.38
76285;BME280;65096;50.998;7.098;2022-12-10T10:59:55;100419.56;;;-0.12;63.92
76285;BME280;65096;50.998;7.098;2022-12-10T11:02:29;100429.03;;;-0.08;63.67
76285;BME280;65096;50.998;7.098;2022-12-10T11:04:57;100430.81;;;-0.05;63.70
76285;BME280;65096;50.998;7.098;2022-12-10T11:07:32;100425.81;;;-0.04;63.55
76285;BME280;65096;50.998;7.098;2022-12-10T11:10:00;100423.56;;;0.02;63.62
76285;BME280;65096;50.998;7.098;2022-12-10T11:12:35;100429.63;;;0.06;63.93
76285;BME280;65096;50.998;7.098;2022-12-10T11:15:28;100426.44;;;0.10;63.87
76285;BME280;65096;50.998;7.098;2022-12-10T11:17:57;100428.09;;;0.09;63.73
76285;BME280;65096;50.998;7.098;2022-12-10T11:20:26;100429.09;;;0.13;63.91
76285;BME280;65096;50.998;7.098;2022-12-10T11:22:55;100430.94;;;0.17;63.81
76285;BME280;65096;50.998;7.098;2022-12-10T11:25:31;100426.75;;;0.17;63.73
76285;BME280;65096;50.998;7.098;2022-12-10T11:28:08;100425.88;;;0.17;63.26
76285;BME280;65096;50.998;7.098;2022-12-10T11:30:43;100427.00;;;0.23;63.36
76285;BME280;65096;50.998;7.098;2022-12-10T11:33:20;100430.50;;;0.25;63.80
76285;BME280;65096;50.998;7.098;2022-12-10T11:35:57;100431.44;;;0.27;63.62
76285;BME280;65096;50.998;7.098;2022-12-10T11:41:12;100436.81;;;0.35;63.48
76285;BME280;65096;50.998;7.098;2022-12-10T11:44:13;100430.81;;;0.33;62.92
76285;BME280;65096;50.998;7.098;2022-12-10T11:46:56;100431.69;;;0.33;63.40
76285;BME280;65096;50.998;7.098;2022-12-10T11:49:30;100436.13;;;0.39;63.11
76285;BME280;65096;50.998;7.098;2022-12-10T11:52:04;100432.63;;;0.35;62.40
76285;BME280;65096;50.998;7.098;2022-12-10T11:54:53;100433.53;;;0.37;62.16
76285;BME280;65096;50.998;7.098;2022-12-10T11:57:30;100441.88;;;0.35;62.48
76285;BME280;65096;50.998;7.098;2022-12-10T12:00:03;100430.75;;;0.31;62.77
76285;BME280;65096;50.998;7.098;2022-12-10T12:02:55;100433.53;;;0.37;62.35
76285;BME280;65096;50.998;7.098;2022-12-10T12:05:39;100431.94;;;0.39;61.80
76285;BME280;65096;50.998;7.098;2022-12-10T12:08:13;100434.28;;;0.35;61.85
76285;BME280;65096;50.998;7.098;2022-12-10T12:11:05;100434.34;;;0.36;61.38
76285;BME280;65096;50.998;7.098;2022-12-10T12:13:35;100445.97;;;0.31;62.16
76285;BME280;65096;50.998;7.098;2022-12-10T12:16:09;100449.25;;;0.29;61.82
76285;BME280;65096;50.998;7.098;2022-12-10T12:18:44;100447.72;;;0.32;60.80
76285;BME280;65096;50.998;7.098;2022-12-10T12:21:18;100439.22;;;0.32;61.42
76285;BME280;65096;50.998;7.098;2022-12-10T12:23:49;100444.31;;;0.32;61.53
76285;BME280;65096;50.998;7.098;2022-12-10T12:26:21;100452.78;;;0.32;61.11
76285;BME280;65096;50.998;7.098;2022-12-10T12:28:53;100447.84;;;0.35;61.44
76285;BME280;65096;50.998;7.098;2022-12-10T12:31:26;100450.44;;;0.37;60.61
76285;BME280;65096;50.998;7.098;2022-12-10T12:33:59;100448.44;;;0.30;61.13
76285;BME280;65096;50.998;7.098;2022-12-10T12:36:30;100449.84;;;0.23;59.19
76285;BME280;65096;50.998;7.098;2022-12-10T12:39:03;100448.25;;;0.25;61.08
76285;BME280;65096;50.998;7.098;2022-12-10T12:41:36;100455.09;;;0.28;61.20
76285;BME280;65096;50.998;7.098;2022-12-10T12:44:13;100445.19;;;0.32;60.87
76285;BME280;65096;50.998;7.098;2022-12-10T12:46:43;100449.00;;;0.23;60.83
76285;BME280;65096;50.998;7.098;2022-12-10T12:49:15;100442.41;;;0.28;60.42
76285;BME280;65096;50.998;7.098;2022-12-10T12:51:51;100450.16;;;0.31;61.27
76285;BME280;65096;50.998;7.098;2022-12-10T12:54:20;100449.44;;;0.33;60.50
76285;BME280;65096;50.998;7.098;2022-12-10T12:57:06;100418.22;;;0.15;60.83
76285;BME280;65096;50.998;7.098;2022-12-10T12:59:52;100449.50;;;0.35;60.93
76285;BME280;65096;50.998;7.098;2022-12-10T13:02:31;100453.09;;;0.40;60.65
76285;BME280;65096;50.998;7.098;2022-12-10T13:05:13;100437.63;;;0.34;61.04
76285;BME280;65096;50.998;7.098;2022-12-10T13:07:42;100435.34;;;0.40;61.07
76285;BME280;65096;50.998;7.098;2022-12-10T13:10:22;100430.22;;;0.38;61.21